createdAt,value
2018-09-18T00:00:25.022Z,2.20
2018-09-18T00:02:54.120Z,2.40
2018-09-18T00:05:23.180Z,3.43
2018-09-18T00:07:52.290Z,2.50
2018-09-18T00:10:21.410Z,3.03
2018-09-18T00:12:52.164Z,2.80
2018-09-18T00:15:21.272Z,3.23
2018-09-18T00:17:50.354Z,3.03
2018-09-18T00:20:19.390Z,2.40
2018-09-18T00:22:48.506Z,3.70
2018-09-18T00:25:17.589Z,3.80
2018-09-18T00:27:46.710Z,5.73
2018-09-18T00:30:15.816Z,4.00
2018-09-18T00:32:45.056Z,3.47
2018-09-18T00:35:14.191Z,4.07
2018-09-18T00:37:43.463Z,3.23
2018-09-18T00:40:12.571Z,2.77
2018-09-18T00:42:41.706Z,3.27
2018-09-18T00:45:10.896Z,3.77
2018-09-18T00:47:39.998Z,2.43
2018-09-18T00:50:09.070Z,3.47
2018-09-18T00:52:38.114Z,3.53
2018-09-18T00:55:07.174Z,5.37
2018-09-18T00:57:36.270Z,3.00
2018-09-18T01:00:05.544Z,3.93
2018-09-18T01:02:34.630Z,2.83
2018-09-18T01:05:03.748Z,3.03
2018-09-18T01:07:32.914Z,6.63
2018-09-18T01:10:02.013Z,2.40
2018-09-18T01:12:31.146Z,3.07
2018-09-18T01:15:00.260Z,3.60
2018-09-18T01:17:29.315Z,2.67
2018-09-18T01:19:58.438Z,3.10
2018-09-18T01:22:27.650Z,3.43
2018-09-18T01:24:56.708Z,2.77
2018-09-18T01:27:25.840Z,4.03
2018-09-18T01:29:54.895Z,2.53
2018-09-18T01:32:24.014Z,3.63
2018-09-18T01:34:53.078Z,2.60
2018-09-18T01:37:22.202Z,3.17
2018-09-18T01:39:51.307Z,3.37
2018-09-18T01:42:20.445Z,2.87
2018-09-18T01:44:50.299Z,2.70
2018-09-18T01:47:19.386Z,3.73
2018-09-18T01:49:48.487Z,4.13
2018-09-18T01:52:17.566Z,5.27
2018-09-18T01:54:46.630Z,2.83
2018-09-18T01:57:15.917Z,2.63
2018-09-18T01:59:45.327Z,3.40
2018-09-18T02:02:14.495Z,3.27
2018-09-18T02:04:43.633Z,3.10
2018-09-18T02:07:12.899Z,2.57
2018-09-18T02:09:41.975Z,3.13
2018-09-18T02:12:11.106Z,2.70
2018-09-18T02:14:40.191Z,3.90
2018-09-18T02:17:09.239Z,3.20
2018-09-18T02:19:38.299Z,3.27
2018-09-18T02:22:07.359Z,2.60
2018-09-18T02:24:36.826Z,2.73
2018-09-18T02:27:06.139Z,2.67
2018-09-18T02:29:35.260Z,3.13
2018-09-18T02:32:04.323Z,3.07
2018-09-18T02:34:33.443Z,2.73
2018-09-18T02:37:02.555Z,3.83
2018-09-18T02:39:31.671Z,2.63
2018-09-18T02:42:00.771Z,3.37
2018-09-18T02:44:29.830Z,2.83
2018-09-18T02:46:58.957Z,3.17
2018-09-18T02:49:28.157Z,2.63
2018-09-18T02:51:57.174Z,2.73
2018-09-18T02:54:26.223Z,2.97
2018-09-18T02:56:55.299Z,3.57
2018-09-18T02:59:25.218Z,3.20
2018-09-18T03:01:54.349Z,3.37
2018-09-18T03:04:23.615Z,3.33
2018-09-18T03:06:52.739Z,3.80
2018-09-18T03:09:21.836Z,2.97
2018-09-18T03:11:50.903Z,3.63
2018-09-18T03:14:19.995Z,2.70
2018-09-18T03:16:49.133Z,2.67
2018-09-18T03:19:18.197Z,4.07
2018-09-18T03:21:47.399Z,3.57
2018-09-18T03:24:16.531Z,3.33
2018-09-18T03:26:45.591Z,2.77
2018-09-18T03:29:14.708Z,6.30
2018-09-18T03:31:43.812Z,3.80
2018-09-18T03:34:12.868Z,2.73
2018-09-18T03:36:41.940Z,3.40
2018-09-18T03:39:10.999Z,3.50
2018-09-18T03:41:40.051Z,2.93
2018-09-18T03:44:09.120Z,3.27
2018-09-18T03:46:38.203Z,2.97
2018-09-18T03:49:07.347Z,3.33
2018-09-18T03:51:36.459Z,4.43
2018-09-18T03:54:05.572Z,2.70
2018-09-18T03:56:34.652Z,2.97
2018-09-18T03:59:03.867Z,2.70
2018-09-18T04:01:32.935Z,3.50
2018-09-18T04:04:02.061Z,3.10
2018-09-18T04:06:31.135Z,3.27
2018-09-18T04:09:00.236Z,4.27
2018-09-18T04:11:29.389Z,3.33
2018-09-18T04:13:58.321Z,4.77
2018-09-18T04:16:27.318Z,3.30
2018-09-18T04:18:56.409Z,2.30
2018-09-18T04:21:42.593Z,3.87
2018-09-18T04:24:11.705Z,3.03
2018-09-18T04:26:41.575Z,3.33
2018-09-18T04:29:10.864Z,3.63
2018-09-18T04:31:41.096Z,2.87
2018-09-18T04:34:10.256Z,2.60
2018-09-18T04:36:39.301Z,2.57
2018-09-18T04:39:09.881Z,2.70
2018-09-18T04:41:38.936Z,3.87
2018-09-18T04:44:08.612Z,2.80
2018-09-18T04:46:37.603Z,3.83
2018-09-18T04:49:06.688Z,4.73
2018-09-18T04:51:35.660Z,3.47
2018-09-18T04:54:04.724Z,3.30
2018-09-18T04:56:33.860Z,3.80
2018-09-18T04:59:02.932Z,3.67
2018-09-18T05:01:32.014Z,3.00
2018-09-18T05:04:01.066Z,2.90
2018-09-18T05:06:30.116Z,4.13
2018-09-18T05:08:59.442Z,2.47
2018-09-18T05:11:28.502Z,2.30
2018-09-18T05:13:57.779Z,3.27
2018-09-18T05:16:27.009Z,3.97
2018-09-18T05:18:56.025Z,3.13
2018-09-18T05:21:25.099Z,2.77
2018-09-18T05:23:54.210Z,4.20
2018-09-18T05:26:23.299Z,3.93
2018-09-18T05:28:52.367Z,3.30
2018-09-18T05:31:21.511Z,2.57
2018-09-18T05:33:50.666Z,2.90
2018-09-18T05:36:19.880Z,2.80
2018-09-18T05:38:48.980Z,2.50
2018-09-18T05:41:18.100Z,4.13
2018-09-18T05:43:47.394Z,2.60
2018-09-18T05:46:16.460Z,2.50
2018-09-18T05:48:45.592Z,2.87
2018-09-18T05:51:14.660Z,2.90
2018-09-18T05:53:43.760Z,2.87
2018-09-18T05:56:12.878Z,5.37
2018-09-18T05:58:41.954Z,2.83
2018-09-18T06:01:11.021Z,2.50
2018-09-18T06:03:40.190Z,2.50
2018-09-18T06:06:09.336Z,3.07
2018-09-18T06:08:38.405Z,2.80
2018-09-18T06:11:07.658Z,2.80
2018-09-18T06:13:36.728Z,2.53
2018-09-18T06:16:05.784Z,2.70
2018-09-18T06:18:35.017Z,2.93
2018-09-18T06:21:04.265Z,3.30
2018-09-18T06:23:33.330Z,3.27
2018-09-18T06:26:02.407Z,2.53
2018-09-18T06:28:31.738Z,2.33
2018-09-18T06:31:00.732Z,3.67
2018-09-18T06:33:29.767Z,2.83
2018-09-18T06:35:58.851Z,2.43
2018-09-18T06:38:28.040Z,3.13
2018-09-18T06:40:57.118Z,3.30
2018-09-18T06:43:26.212Z,2.10
2018-09-18T06:45:55.308Z,2.47
2018-09-18T06:48:24.345Z,2.40
2018-09-18T06:50:53.500Z,2.00
2018-09-18T06:53:22.596Z,2.30
2018-09-18T06:55:51.639Z,2.60
2018-09-18T06:58:20.774Z,3.87
2018-09-18T07:00:49.865Z,2.40
2018-09-18T07:03:18.971Z,2.77
2018-09-18T07:05:48.027Z,2.57
2018-09-18T07:08:17.378Z,2.37
2018-09-18T07:10:46.473Z,3.90
2018-09-18T07:13:15.670Z,2.33
2018-09-18T07:15:45.871Z,2.80
2018-09-18T07:18:14.982Z,2.00
2018-09-18T07:20:44.093Z,4.83
2018-09-18T07:23:13.374Z,2.50
2018-09-18T07:25:42.444Z,2.83
2018-09-18T07:28:11.932Z,2.67
2018-09-18T07:30:41.008Z,2.23
2018-09-18T07:33:10.152Z,2.83
2018-09-18T07:35:39.244Z,5.27
2018-09-18T07:38:08.423Z,3.07
2018-09-18T07:40:37.466Z,2.23
2018-09-18T07:43:06.498Z,3.17
2018-09-18T07:45:35.761Z,3.03
2018-09-18T07:48:05.065Z,2.20
2018-09-18T07:50:34.168Z,2.97
2018-09-18T07:53:03.240Z,2.70
2018-09-18T07:55:32.300Z,2.57
2018-09-18T07:58:01.445Z,2.43
2018-09-18T08:00:30.956Z,2.70
2018-09-18T08:03:00.052Z,3.03
2018-09-18T08:05:29.347Z,3.30
2018-09-18T08:07:58.444Z,1.90
2018-09-18T08:10:27.523Z,2.90
2018-09-18T08:12:56.615Z,2.43
2018-09-18T08:15:25.732Z,2.37
2018-09-18T08:17:54.827Z,3.97
2018-09-18T08:20:23.915Z,2.80
2018-09-18T08:22:52.907Z,2.30
2018-09-18T08:25:22.345Z,2.27
2018-09-18T08:27:51.658Z,2.27
2018-09-18T08:30:20.799Z,2.20
2018-09-18T08:32:49.882Z,3.47
2018-09-18T08:35:19.216Z,2.60
2018-09-18T08:37:48.309Z,2.30
2018-09-18T08:40:17.411Z,2.43
2018-09-18T08:42:46.480Z,2.60
2018-09-18T08:45:15.703Z,2.10
2018-09-18T08:47:44.830Z,2.60
2018-09-18T08:50:14.070Z,2.40
2018-09-18T08:52:43.220Z,2.03
2018-09-18T08:55:12.474Z,2.83
2018-09-18T08:57:41.776Z,2.83
2018-09-18T09:00:11.115Z,2.67
2018-09-18T09:02:40.360Z,3.17
2018-09-18T09:05:09.616Z,5.13
2018-09-18T09:07:39.043Z,2.53
2018-09-18T09:10:08.260Z,2.67
2018-09-18T09:12:37.499Z,4.40
2018-09-18T09:15:06.876Z,2.50
2018-09-18T09:17:36.223Z,4.43
2018-09-18T09:20:05.720Z,2.60
2018-09-18T09:22:35.010Z,2.07
2018-09-18T09:25:04.169Z,2.37
2018-09-18T09:27:33.207Z,2.30
2018-09-18T09:30:02.572Z,2.47
2018-09-18T09:32:31.904Z,2.60
2018-09-18T09:35:01.004Z,2.80
2018-09-18T09:37:30.289Z,2.50
2018-09-18T09:39:59.397Z,4.17
2018-09-18T09:42:28.380Z,2.40
2018-09-18T09:44:57.505Z,4.67
2018-09-18T09:47:26.790Z,2.53
2018-09-18T09:49:55.883Z,4.57
2018-09-18T09:52:24.955Z,2.73
2018-09-18T09:54:54.033Z,3.23
2018-09-18T09:57:23.105Z,3.97
2018-09-18T09:59:52.258Z,6.00
2018-09-18T10:02:26.893Z,3.73
2018-09-18T10:04:56.177Z,3.57
2018-09-18T10:07:25.287Z,4.00
2018-09-18T10:09:54.371Z,2.93
2018-09-18T10:12:23.480Z,4.37
2018-09-18T10:14:52.555Z,3.53
2018-09-18T10:17:21.662Z,3.57
2018-09-18T10:19:50.751Z,3.67
2018-09-18T10:22:19.843Z,5.40
2018-09-18T10:24:48.959Z,3.43
2018-09-18T10:27:18.059Z,7.70
2018-09-18T10:29:47.160Z,4.57
2018-09-18T10:32:16.534Z,4.63
2018-09-18T10:34:45.870Z,3.50
2018-09-18T10:37:15.054Z,4.73
2018-09-18T10:39:44.148Z,6.97
2018-09-18T10:42:13.309Z,3.07
2018-09-18T10:44:42.635Z,5.53
2018-09-18T10:47:11.918Z,5.47
2018-09-18T10:49:41.251Z,3.63
2018-09-18T10:52:10.247Z,4.33
2018-09-18T10:54:39.652Z,3.80
2018-09-18T10:57:08.717Z,4.47
2018-09-18T10:59:37.803Z,4.60
2018-09-18T11:02:07.392Z,5.17
2018-09-18T11:04:36.593Z,5.03
2018-09-18T11:07:06.151Z,5.77
2018-09-18T11:09:35.484Z,5.53
2018-09-18T11:12:04.751Z,5.53
2018-09-18T11:14:33.898Z,5.20
2018-09-18T11:17:03.160Z,3.63
2018-09-18T11:19:32.224Z,4.33
2018-09-18T11:22:01.570Z,4.33
2018-09-18T11:24:30.843Z,3.17
2018-09-18T11:26:59.939Z,3.47
2018-09-18T11:29:29.072Z,4.47
2018-09-18T11:31:58.243Z,5.17
2018-09-18T11:34:27.639Z,4.83
2018-09-18T11:36:56.823Z,7.60
2018-09-18T11:39:25.939Z,4.97
2018-09-18T11:41:55.025Z,3.50
2018-09-18T11:44:24.263Z,7.40
2018-09-18T11:46:53.532Z,4.10
2018-09-18T11:49:22.931Z,4.67
2018-09-18T11:51:52.164Z,5.00
2018-09-18T11:54:21.293Z,5.57
2018-09-18T11:56:50.528Z,3.97
2018-09-18T11:59:19.731Z,4.57
2018-09-18T12:01:49.151Z,7.03
2018-09-18T12:04:18.583Z,4.43
2018-09-18T12:06:47.730Z,6.13
2018-09-18T12:09:16.868Z,9.03
2018-09-18T12:11:46.108Z,6.50
2018-09-18T12:14:15.231Z,6.70
2018-09-18T12:16:44.303Z,4.50
2018-09-18T12:19:13.575Z,4.27
2018-09-18T12:21:42.926Z,7.17
2018-09-18T12:24:12.117Z,6.53
2018-09-18T12:26:41.227Z,3.60
2018-09-18T12:29:10.285Z,2.97
2018-09-18T12:31:39.391Z,7.27
2018-09-18T12:34:08.497Z,7.87
2018-09-18T12:36:37.591Z,6.47
2018-09-18T12:39:08.339Z,3.37
2018-09-18T12:41:37.982Z,4.07
2018-09-18T12:44:07.301Z,2.90
2018-09-18T12:46:36.479Z,6.70
2018-09-18T12:49:05.858Z,3.90
2018-09-18T12:51:35.088Z,5.97
2018-09-18T12:54:04.403Z,6.93
2018-09-18T12:56:33.629Z,4.30
2018-09-18T12:59:02.701Z,7.40
2018-09-18T13:01:31.803Z,5.47
2018-09-18T13:04:00.920Z,6.40
2018-09-18T13:06:30.414Z,5.07
2018-09-18T13:08:59.541Z,5.77
2018-09-18T13:11:28.735Z,5.80
2018-09-18T13:13:57.868Z,6.23
2018-09-18T13:16:27.261Z,7.43
2018-09-18T13:18:56.552Z,7.37
2018-09-18T13:21:25.627Z,6.80
2018-09-18T13:23:54.720Z,5.90
2018-09-18T13:26:23.818Z,4.70
2018-09-18T13:28:52.993Z,9.90
2018-09-18T13:31:22.072Z,4.40
2018-09-18T13:33:51.477Z,5.20
2018-09-18T13:36:20.768Z,5.67
2018-09-18T13:38:51.116Z,11.00
2018-09-18T13:41:20.322Z,5.67
2018-09-18T13:43:49.499Z,5.63
2018-09-18T13:46:18.666Z,5.27
2018-09-18T13:48:47.908Z,7.03
2018-09-18T13:51:17.164Z,6.37
2018-09-18T13:53:46.304Z,4.83
2018-09-18T13:56:15.483Z,6.90
2018-09-18T13:58:44.726Z,6.57
2018-09-18T14:01:13.808Z,5.70
2018-09-18T14:03:43.044Z,8.13
2018-09-18T14:06:12.116Z,4.27
2018-09-18T14:08:41.192Z,7.93
2018-09-18T14:11:10.293Z,5.57
2018-09-18T14:13:39.512Z,7.07
2018-09-18T14:16:09.098Z,11.23
2018-09-18T14:18:38.190Z,5.50
2018-09-18T14:21:07.589Z,5.10
2018-09-18T14:23:36.656Z,5.07
2018-09-18T14:26:05.786Z,6.43
2018-09-18T14:28:37.065Z,7.30
2018-09-18T14:31:06.431Z,6.30
2018-09-18T14:33:35.744Z,7.70
2018-09-18T14:36:04.926Z,5.23
2018-09-18T14:38:34.046Z,7.77
2018-09-18T14:41:03.149Z,8.97
2018-09-18T14:43:32.219Z,9.53
2018-09-18T14:46:01.264Z,5.27
2018-09-18T14:48:30.430Z,5.83
2018-09-18T14:50:59.552Z,5.87
2018-09-18T14:53:28.773Z,12.43
2018-09-18T14:55:57.913Z,7.60
2018-09-18T14:58:26.980Z,7.80
2018-09-18T15:00:56.104Z,11.70
2018-09-18T15:03:25.203Z,6.83
2018-09-18T15:05:54.307Z,12.97
2018-09-18T15:08:23.406Z,12.57
2018-09-18T15:10:52.482Z,17.03
2018-09-18T15:13:21.576Z,11.60
2018-09-18T15:15:50.855Z,13.60
2018-09-18T15:18:20.308Z,9.20
2018-09-18T15:20:49.409Z,9.73
2018-09-18T15:23:18.500Z,11.83
2018-09-18T15:25:47.643Z,7.23
2018-09-18T15:28:16.792Z,10.30
2018-09-18T15:30:45.882Z,9.83
2018-09-18T15:33:14.940Z,7.33
2018-09-18T15:35:44.052Z,9.53
2018-09-18T15:38:13.134Z,11.77
2018-09-18T15:40:42.370Z,11.07
2018-09-18T15:43:11.493Z,13.87
2018-09-18T15:45:40.882Z,10.80
2018-09-18T15:48:10.145Z,9.73
2018-09-18T15:50:39.210Z,16.37
2018-09-18T15:53:08.347Z,14.83
2018-09-18T15:55:37.427Z,13.60
2018-09-18T15:58:06.554Z,12.07
2018-09-18T16:00:35.648Z,14.10
2018-09-18T16:03:04.888Z,9.27
2018-09-18T16:05:34.045Z,13.73
2018-09-18T16:08:03.210Z,6.87
2018-09-18T16:10:32.339Z,11.73
2018-09-18T16:13:01.411Z,9.00
2018-09-18T16:15:30.560Z,13.40
2018-09-18T16:17:59.804Z,12.67
2018-09-18T16:20:28.893Z,11.03
2018-09-18T16:22:58.115Z,8.63
2018-09-18T16:25:27.284Z,12.80
2018-09-18T16:27:56.520Z,11.43
2018-09-18T16:30:25.596Z,11.90
2018-09-18T16:32:54.695Z,9.80
2018-09-18T16:35:23.788Z,12.87
2018-09-18T16:37:52.882Z,10.93
2018-09-18T16:40:22.068Z,13.87
2018-09-18T16:42:51.271Z,13.90
2018-09-18T16:45:20.381Z,12.63
2018-09-18T16:47:49.742Z,18.73
2018-09-18T16:50:18.830Z,10.87
2018-09-18T16:52:47.934Z,16.33
2018-09-18T16:55:17.019Z,13.63
2018-09-18T16:57:46.254Z,14.23
2018-09-18T17:00:15.381Z,14.40
2018-09-18T17:02:44.456Z,11.87
2018-09-18T17:05:13.541Z,22.43
2018-09-18T17:07:42.775Z,12.13
2018-09-18T17:10:11.846Z,11.20
2018-09-18T17:12:41.010Z,12.50
2018-09-18T17:15:10.368Z,16.13
2018-09-18T17:17:39.448Z,13.53
2018-09-18T17:20:08.693Z,15.77
2018-09-18T17:22:37.907Z,7.33
2018-09-18T17:25:07.160Z,13.60
2018-09-18T17:27:36.355Z,11.67
2018-09-18T17:30:05.417Z,16.73
2018-09-18T17:32:34.501Z,12.63
2018-09-18T17:35:03.848Z,11.93
2018-09-18T17:37:32.912Z,11.23
2018-09-18T17:40:02.068Z,15.50
2018-09-18T17:42:31.322Z,9.57
2018-09-18T17:45:00.417Z,11.57
2018-09-18T17:47:29.546Z,15.60
2018-09-18T17:49:58.820Z,11.07
2018-09-18T17:52:28.140Z,11.90
2018-09-18T17:54:57.324Z,11.83
2018-09-18T17:57:26.380Z,13.33
2018-09-18T17:59:55.508Z,14.70
2018-09-18T18:02:24.615Z,13.40
2018-09-18T18:04:53.709Z,13.63
2018-09-18T18:07:22.786Z,10.87
2018-09-18T18:09:52.043Z,14.20
2018-09-18T18:12:21.187Z,11.53
2018-09-18T18:14:50.260Z,13.73
2018-09-18T18:17:19.410Z,19.17
2018-09-18T18:19:48.676Z,12.97
2018-09-18T18:22:18.188Z,11.60
2018-09-18T18:24:47.309Z,13.23
2018-09-18T18:27:16.374Z,11.17
2018-09-18T18:29:45.462Z,13.03
2018-09-18T18:32:14.527Z,10.47
2018-09-18T18:34:43.634Z,11.33
2018-09-18T18:37:12.759Z,10.37
2018-09-18T18:39:41.836Z,9.90
2018-09-18T18:42:10.978Z,8.73
2018-09-18T18:44:40.045Z,11.13
2018-09-18T18:47:09.165Z,8.93
2018-09-18T18:49:39.186Z,7.73
2018-09-18T18:52:08.238Z,9.83
2018-09-18T18:54:37.420Z,8.80
2018-09-18T18:57:06.835Z,9.87
2018-09-18T18:59:35.972Z,7.67
2018-09-18T19:02:05.255Z,8.53
2018-09-18T19:04:34.356Z,8.50
2018-09-18T19:07:03.500Z,7.63
2018-09-18T19:09:32.741Z,10.60
2018-09-18T19:12:01.889Z,7.67
2018-09-18T19:14:31.118Z,13.43
2018-09-18T19:17:00.270Z,8.80
2018-09-18T19:19:29.586Z,8.63
2018-09-18T19:21:58.675Z,7.70
2018-09-18T19:24:27.906Z,7.43
2018-09-18T19:26:57.104Z,6.20
2018-09-18T19:29:26.369Z,7.93
2018-09-18T19:31:55.759Z,8.33
2018-09-18T19:34:24.927Z,9.77
2018-09-18T19:36:54.257Z,7.70
2018-09-18T19:39:23.644Z,6.80
2018-09-18T19:41:52.857Z,9.43
2018-09-18T19:44:21.961Z,9.90
2018-09-18T19:46:51.131Z,8.37
2018-09-18T19:49:20.285Z,9.13
2018-09-18T19:51:49.402Z,6.43
2018-09-18T19:54:18.719Z,6.20
2018-09-18T19:56:47.817Z,7.07
2018-09-18T19:59:16.938Z,9.53
2018-09-18T20:01:46.271Z,8.50
2018-09-18T20:04:15.553Z,8.70
2018-09-18T20:06:44.627Z,7.37
2018-09-18T20:09:13.765Z,6.83
2018-09-18T20:11:43.143Z,9.07
2018-09-18T20:14:12.428Z,9.13
2018-09-18T20:16:41.565Z,8.57
2018-09-18T20:19:11.044Z,10.73
2018-09-18T20:21:40.141Z,6.43
2018-09-18T20:24:09.238Z,8.53
2018-09-18T20:26:38.405Z,6.43
2018-09-18T20:29:07.873Z,9.83
2018-09-18T20:31:37.053Z,8.23
2018-09-18T20:34:06.430Z,5.77
2018-09-18T20:36:35.577Z,11.27
2018-09-18T20:39:06.488Z,5.63
2018-09-18T20:41:35.705Z,8.77
2018-09-18T20:44:05.195Z,9.93
2018-09-18T20:49:26.618Z,5.37
2018-09-18T20:51:55.736Z,6.03
2018-09-18T20:54:25.592Z,5.20
2018-09-18T20:56:54.912Z,5.97
2018-09-18T20:59:24.021Z,7.67
2018-09-18T21:01:53.208Z,8.20
2018-09-18T21:04:22.826Z,7.17
2018-09-18T21:06:52.023Z,8.10
2018-09-18T21:09:21.213Z,7.00
2018-09-18T21:11:50.429Z,5.20
2018-09-18T21:14:19.527Z,8.23
2018-09-18T21:16:48.686Z,7.83
2018-09-18T21:19:17.818Z,4.70
2018-09-18T21:21:47.020Z,6.83
2018-09-18T21:24:16.948Z,7.07
2018-09-18T21:26:46.038Z,4.00
2018-09-18T21:29:16.114Z,5.03
2018-09-18T21:31:45.240Z,7.00
2018-09-18T21:34:14.555Z,9.23
2018-09-18T21:36:43.710Z,3.67
2018-09-18T21:39:12.807Z,5.07
2018-09-18T21:41:41.900Z,6.13
2018-09-18T21:44:11.023Z,8.13
2018-09-18T21:46:40.220Z,8.00
2018-09-18T21:49:09.305Z,5.23
2018-09-18T21:51:38.387Z,5.67
2018-09-18T21:54:07.521Z,4.93
2018-09-18T21:56:36.678Z,5.93
2018-09-18T21:59:05.770Z,3.87
2018-09-18T22:01:34.864Z,8.10
2018-09-18T22:04:03.942Z,4.30
2018-09-18T22:06:33.174Z,4.97
2018-09-18T22:09:02.396Z,4.13
2018-09-18T22:11:31.473Z,5.80
2018-09-18T22:14:00.599Z,3.97
2018-09-18T22:16:29.666Z,6.43
2018-09-18T22:18:58.766Z,4.83
2018-09-18T22:21:27.868Z,5.27
2018-09-18T22:23:56.943Z,3.57
2018-09-18T22:26:26.051Z,6.03
2018-09-18T22:28:55.544Z,4.13
2018-09-18T22:31:24.646Z,4.33
2018-09-18T22:33:53.814Z,2.77
2018-09-18T22:36:22.880Z,5.00
2018-09-18T22:38:51.962Z,5.40
2018-09-18T22:41:21.266Z,3.70
2018-09-18T22:43:50.448Z,4.27
2018-09-18T22:46:19.617Z,3.70
2018-09-18T22:48:48.703Z,4.77
2018-09-18T22:51:17.984Z,5.37
2018-09-18T22:53:47.140Z,4.20
2018-09-18T22:56:17.340Z,3.70
2018-09-18T22:58:46.456Z,2.47
2018-09-18T23:01:15.518Z,3.63
2018-09-18T23:03:44.781Z,3.10
2018-09-18T23:06:14.112Z,3.67
2018-09-18T23:08:43.527Z,5.77
2018-09-18T23:11:12.636Z,4.90
2018-09-18T23:13:41.745Z,2.30
2018-09-18T23:16:10.841Z,4.40
2018-09-18T23:18:39.953Z,3.23
2018-09-18T23:21:09.218Z,4.10
2018-09-18T23:23:38.420Z,6.97
2018-09-18T23:26:07.510Z,5.07
2018-09-18T23:28:36.606Z,4.63
2018-09-18T23:31:05.720Z,3.23
2018-09-18T23:33:34.782Z,3.40
2018-09-18T23:36:03.952Z,4.53
2018-09-18T23:38:33.299Z,3.73
2018-09-18T23:41:02.358Z,4.93
2018-09-18T23:43:31.523Z,3.53
2018-09-18T23:46:00.580Z,5.07
2018-09-18T23:48:29.816Z,3.87
2018-09-18T23:50:59.097Z,3.73
2018-09-18T23:53:28.187Z,4.93
2018-09-18T23:55:57.267Z,3.80
2018-09-18T23:58:26.544Z,2.23
